sensor_id;sensor_type;location;lat;lon;timestamp;pressure;altitude;pressure_sealevel;temperature;humidity
29825;BME280;16713;52.916;12.834;2023-02-19T00:01:43;100868.28;;;4.23;80.13
29825;BME280;16713;52.916;12.834;2023-02-19T00:04:11;100874.50;;;4.23;79.28
29825;BME280;16713;52.916;12.834;2023-02-19T00:06:39;100884.38;;;4.19;79.66
29825;BME280;16713;52.916;12.834;2023-02-19T00:09:05;100888.44;;;4.08;79.04
29825;BME280;16713;52.916;12.834;2023-02-19T00:11:33;100884.72;;;4.04;78.27
29825;BME280;16713;52.916;12.834;2023-02-19T00:14:00;100870.91;;;3.92;80.44
29825;BME280;16713;52.916;12.834;2023-02-19T00:16:34;100868.56;;;3.99;80.07
29825;BME280;16713;52.916;12.834;2023-02-19T00:19:02;100859.97;;;3.84;79.78
29825;BME280;16713;52.916;12.834;2023-02-19T00:21:29;100863.06;;;3.91;79.54
29825;BME280;16713;52.916;12.834;2023-02-19T00:24:00;100868.97;;;3.93;78.80
29825;BME280;16713;52.916;12.834;2023-02-19T00:26:26;100859.31;;;4.00;79.33
29825;BME280;16713;52.916;12.834;2023-02-19T00:28:53;100853.16;;;4.08;78.40
29825;BME280;16713;52.916;12.834;2023-02-19T00:31:33;100857.38;;;4.01;78.08
29825;BME280;16713;52.916;12.834;2023-02-19T00:34:01;100847.03;;;3.81;78.46
29825;BME280;16713;52.916;12.834;2023-02-19T00:36:28;100851.97;;;3.65;79.52
29825;BME280;16713;52.916;12.834;2023-02-19T00:38:55;100845.22;;;3.76;79.95
29825;BME280;16713;52.916;12.834;2023-02-19T00:41:21;100843.34;;;3.99;79.49
29825;BME280;16713;52.916;12.834;2023-02-19T00:46:22;100820.97;;;3.80;79.94
29825;BME280;16713;52.916;12.834;2023-02-19T00:48:49;100817.41;;;3.71;79.71
29825;BME280;16713;52.916;12.834;2023-02-19T00:51:18;100819.06;;;3.80;79.46
29825;BME280;16713;52.916;12.834;2023-02-19T00:53:44;100826.50;;;3.88;79.20
29825;BME280;16713;52.916;12.834;2023-02-19T00:56:10;100820.31;;;3.74;80.01
29825;BME280;16713;52.916;12.834;2023-02-19T00:58:37;100828.25;;;3.71;79.90
29825;BME280;16713;52.916;12.834;2023-02-19T01:01:04;100827.03;;;3.77;80.59
29825;BME280;16713;52.916;12.834;2023-02-19T01:03:32;100820.81;;;3.98;80.24
29825;BME280;16713;52.916;12.834;2023-02-19T01:05:58;100817.38;;;3.84;78.88
29825;BME280;16713;52.916;12.834;2023-02-19T01:08:25;100818.84;;;3.90;79.14
29825;BME280;16713;52.916;12.834;2023-02-19T01:10:52;100807.75;;;4.00;79.38
29825;BME280;16713;52.916;12.834;2023-02-19T01:13:18;100803.66;;;3.89;79.33
29825;BME280;16713;52.916;12.834;2023-02-19T01:15:45;100802.16;;;3.97;79.13
29825;BME280;16713;52.916;12.834;2023-02-19T01:18:11;100801.03;;;3.76;80.45
29825;BME280;16713;52.916;12.834;2023-02-19T01:20:38;100811.13;;;3.84;79.84
29825;BME280;16713;52.916;12.834;2023-02-19T01:23:05;100809.97;;;3.98;80.14
29825;BME280;16713;52.916;12.834;2023-02-19T01:25:32;100807.38;;;3.93;79.46
29825;BME280;16713;52.916;12.834;2023-02-19T01:27:58;100807.00;;;3.86;79.16
29825;BME280;16713;52.916;12.834;2023-02-19T01:30:24;100800.84;;;3.94;79.68
29825;BME280;16713;52.916;12.834;2023-02-19T01:32:51;100794.75;;;3.89;79.46
29825;BME280;16713;52.916;12.834;2023-02-19T01:35:17;100792.66;;;3.86;79.14
29825;BME280;16713;52.916;12.834;2023-02-19T01:37:43;100794.63;;;3.94;79.49
29825;BME280;16713;52.916;12.834;2023-02-19T01:40:10;100792.53;;;3.91;79.31
29825;BME280;16713;52.916;12.834;2023-02-19T01:42:36;100785.78;;;3.88;79.67
29825;BME280;16713;52.916;12.834;2023-02-19T01:47:46;100767.84;;;4.01;79.52
29825;BME280;16713;52.916;12.834;2023-02-19T01:50:14;100759.03;;;3.95;79.37
29825;BME280;16713;52.916;12.834;2023-02-19T01:52:41;100756.06;;;3.83;78.50
29825;BME280;16713;52.916;12.834;2023-02-19T01:55:07;100762.22;;;3.75;79.72
29825;BME280;16713;52.916;12.834;2023-02-19T01:57:36;100759.03;;;3.95;78.97
29825;BME280;16713;52.916;12.834;2023-02-19T02:00:05;100753.47;;;3.78;79.98
29825;BME280;16713;52.916;12.834;2023-02-19T02:02:33;100758.53;;;3.93;80.60
29825;BME280;16713;52.916;12.834;2023-02-19T02:04:59;100754.28;;;4.01;79.46
29825;BME280;16713;52.916;12.834;2023-02-19T02:07:26;100746.88;;;4.15;79.31
29825;BME280;16713;52.916;12.834;2023-02-19T02:10:11;100745.63;;;4.21;79.06
29825;BME280;16713;52.916;12.834;2023-02-19T02:12:47;100744.34;;;3.96;80.47
29825;BME280;16713;52.916;12.834;2023-02-19T02:15:13;100745.69;;;4.07;79.83
29825;BME280;16713;52.916;12.834;2023-02-19T02:17:52;100747.91;;;4.05;79.34
29825;BME280;16713;52.916;12.834;2023-02-19T02:31:05;100772.41;;;4.14;79.01
29825;BME280;16713;52.916;12.834;2023-02-19T02:33:35;100763.88;;;4.29;79.27
29825;BME280;16713;52.916;12.834;2023-02-19T02:36:05;100768.81;;;4.27;79.05
29825;BME280;16713;52.916;12.834;2023-02-19T02:38:37;100770.09;;;4.29;79.28
29825;BME280;16713;52.916;12.834;2023-02-19T02:41:04;100773.50;;;4.35;78.78
29825;BME280;16713;52.916;12.834;2023-02-19T02:43:31;100775.25;;;4.31;78.32
29825;BME280;16713;52.916;12.834;2023-02-19T02:45:58;100779.97;;;4.25;78.96
29825;BME280;16713;52.916;12.834;2023-02-19T02:50:52;100782.56;;;4.30;78.64
29825;BME280;16713;52.916;12.834;2023-02-19T02:53:21;100778.72;;;4.31;79.45
29825;BME280;16713;52.916;12.834;2023-02-19T02:56:08;100769.94;;;4.26;79.60
29825;BME280;16713;52.916;12.834;2023-02-19T02:58:35;100778.06;;;4.04;79.37
29825;BME280;16713;52.916;12.834;2023-02-19T03:01:04;100766.66;;;4.15;80.01
29825;BME280;16713;52.916;12.834;2023-02-19T03:03:53;100766.41;;;4.25;80.13
29825;BME280;16713;52.916;12.834;2023-02-19T03:06:20;100777.75;;;4.05;nan
29825;BME280;16713;52.916;12.834;2023-02-19T03:08:50;100776.06;;;3.87;79.68
29825;BME280;16713;52.916;12.834;2023-02-19T03:11:17;100775.66;;;4.02;79.43
29825;BME280;16713;52.916;12.834;2023-02-19T03:16:54;100785.63;;;4.07;78.66
29825;BME280;16713;52.916;12.834;2023-02-19T03:19:41;100798.38;;;4.06;78.76
29825;BME280;16713;52.916;12.834;2023-02-19T03:22:13;100790.13;;;4.11;78.70
29825;BME280;16713;52.916;12.834;2023-02-19T03:24:48;100793.44;;;4.08;77.94
29825;BME280;16713;52.916;12.834;2023-02-19T03:27:35;100796.94;;;4.09;78.38
29825;BME280;16713;52.916;12.834;2023-02-19T03:30:08;100793.16;;;4.10;78.46
29825;BME280;16713;52.916;12.834;2023-02-19T03:32:37;100797.88;;;4.04;78.03
29825;BME280;16713;52.916;12.834;2023-02-19T03:35:05;100798.69;;;4.05;77.82
29825;BME280;16713;52.916;12.834;2023-02-19T03:37:40;100798.72;;;4.13;78.32
29825;BME280;16713;52.916;12.834;2023-02-19T03:40:09;100796.44;;;3.85;78.59
29825;BME280;16713;52.916;12.834;2023-02-19T03:42:51;100801.09;;;4.06;77.34
29825;BME280;16713;52.916;12.834;2023-02-19T03:50:43;100806.56;;;3.71;77.37
29825;BME280;16713;52.916;12.834;2023-02-19T03:53:16;100806.69;;;3.88;77.71
29825;BME280;16713;52.916;12.834;2023-02-19T04:01:09;100805.69;;;3.62;78.14
29825;BME280;16713;52.916;12.834;2023-02-19T04:03:43;100813.41;;;3.68;78.05
29825;BME280;16713;52.916;12.834;2023-02-19T04:06:12;100810.28;;;3.75;78.24
29825;BME280;16713;52.916;12.834;2023-02-19T04:08:40;100817.72;;;3.56;78.47
29825;BME280;16713;52.916;12.834;2023-02-19T04:11:08;100820.66;;;3.59;78.77
29825;BME280;16713;52.916;12.834;2023-02-19T04:13:36;100819.41;;;3.65;78.46
29825;BME280;16713;52.916;12.834;2023-02-19T04:16:06;100817.50;;;3.79;78.59
29825;BME280;16713;52.916;12.834;2023-02-19T04:18:35;100823.44;;;3.68;77.94
29825;BME280;16713;52.916;12.834;2023-02-19T04:21:03;100816.03;;;3.60;77.44
29825;BME280;16713;52.916;12.834;2023-02-19T04:23:32;100813.16;;;3.42;78.33
29825;BME280;16713;52.916;12.834;2023-02-19T04:26:01;100826.28;;;3.49;78.00
29825;BME280;16713;52.916;12.834;2023-02-19T04:28:28;100831.28;;;3.56;78.62
29825;BME280;16713;52.916;12.834;2023-02-19T04:30:56;100830.41;;;3.46;78.91
29825;BME280;16713;52.916;12.834;2023-02-19T04:33:22;100837.53;;;3.56;78.46
29825;BME280;16713;52.916;12.834;2023-02-19T04:35:48;100837.38;;;3.39;78.42
29825;BME280;16713;52.916;12.834;2023-02-19T04:38:15;100841.97;;;3.25;79.12
29825;BME280;16713;52.916;12.834;2023-02-19T04:40:41;100841.88;;;3.43;78.85
29825;BME280;16713;52.916;12.834;2023-02-19T04:43:07;100838.34;;;3.43;79.28
29825;BME280;16713;52.916;12.834;2023-02-19T04:45:35;100834.16;;;3.37;79.12
29825;BME280;16713;52.916;12.834;2023-02-19T04:48:02;100834.91;;;3.51;78.77
29825;BME280;16713;52.916;12.834;2023-02-19T04:50:28;100837.44;;;3.47;78.84
29825;BME280;16713;52.916;12.834;2023-02-19T04:52:54;100837.53;;;3.56;78.16
29825;BME280;16713;52.916;12.834;2023-02-19T04:55:21;100839.78;;;3.40;78.41
29825;BME280;16713;52.916;12.834;2023-02-19T04:57:47;100833.56;;;3.26;78.37
29825;BME280;16713;52.916;12.834;2023-02-19T05:00:14;100839.97;;;3.44;78.10
29825;BME280;16713;52.916;12.834;2023-02-19T05:02:40;100832.06;;;3.20;78.13
29825;BME280;16713;52.916;12.834;2023-02-19T05:05:07;100829.34;;;3.20;79.02
29825;BME280;16713;52.916;12.834;2023-02-19T05:07:33;100829.75;;;3.27;78.19
29825;BME280;16713;52.916;12.834;2023-02-19T05:09:59;100839.97;;;3.30;79.31
29825;BME280;16713;52.916;12.834;2023-02-19T05:12:26;100835.66;;;3.29;78.85
29825;BME280;16713;52.916;12.834;2023-02-19T05:14:54;100825.34;;;3.04;79.59
29825;BME280;16713;52.916;12.834;2023-02-19T05:17:20;100827.13;;;3.22;79.96
29825;BME280;16713;52.916;12.834;2023-02-19T05:19:46;100823.22;;;3.28;79.67
29825;BME280;16713;52.916;12.834;2023-02-19T05:22:13;100815.91;;;3.02;79.19
29825;BME280;16713;52.916;12.834;2023-02-19T05:24:39;100815.72;;;3.12;79.70
29825;BME280;16713;52.916;12.834;2023-02-19T05:27:05;100810.28;;;3.12;78.76
29825;BME280;16713;52.916;12.834;2023-02-19T05:29:32;100814.81;;;3.16;79.69
29825;BME280;16713;52.916;12.834;2023-02-19T05:31:58;100806.84;;;3.33;78.82
29825;BME280;16713;52.916;12.834;2023-02-19T05:34:24;100812.88;;;3.17;79.45
29825;BME280;16713;52.916;12.834;2023-02-19T05:36:51;100815.19;;;3.23;78.48
29825;BME280;16713;52.916;12.834;2023-02-19T05:39:17;100819.31;;;3.07;78.93
29825;BME280;16713;52.916;12.834;2023-02-19T05:41:43;100828.16;;;3.26;77.90
29825;BME280;16713;52.916;12.834;2023-02-19T05:44:10;100824.13;;;3.24;78.73
29825;BME280;16713;52.916;12.834;2023-02-19T05:46:36;100820.44;;;3.20;78.03
29825;BME280;16713;52.916;12.834;2023-02-19T05:49:03;100828.16;;;3.26;78.54
29825;BME280;16713;52.916;12.834;2023-02-19T05:51:29;100825.81;;;3.33;78.56
29825;BME280;16713;52.916;12.834;2023-02-19T05:53:56;100832.75;;;3.26;78.86
29825;BME280;16713;52.916;12.834;2023-02-19T05:56:23;100837.97;;;3.09;78.22
29825;BME280;16713;52.916;12.834;2023-02-19T05:58:52;100833.97;;;3.06;78.12
29825;BME280;16713;52.916;12.834;2023-02-19T06:01:19;100835.88;;;3.06;78.09
29825;BME280;16713;52.916;12.834;2023-02-19T06:03:46;100845.19;;;3.00;78.51
29825;BME280;16713;52.916;12.834;2023-02-19T06:06:13;100846.41;;;3.07;78.03
29825;BME280;16713;52.916;12.834;2023-02-19T06:08:39;100860.25;;;3.19;77.87
29825;BME280;16713;52.916;12.834;2023-02-19T06:11:06;100862.28;;;3.00;78.03
29825;BME280;16713;52.916;12.834;2023-02-19T06:13:32;100870.78;;;2.94;78.12
29825;BME280;16713;52.916;12.834;2023-02-19T06:15:58;100863.69;;;3.11;77.85
29825;BME280;16713;52.916;12.834;2023-02-19T06:18:25;100872.19;;;3.05;78.38
29825;BME280;16713;52.916;12.834;2023-02-19T06:20:51;100878.63;;;2.95;77.77
29825;BME280;16713;52.916;12.834;2023-02-19T06:23:17;100881.03;;;2.97;78.66
29825;BME280;16713;52.916;12.834;2023-02-19T06:25:44;100886.03;;;2.90;77.55
29825;BME280;16713;52.916;12.834;2023-02-19T06:28:10;100891.22;;;2.73;78.09
29825;BME280;16713;52.916;12.834;2023-02-19T06:30:36;100895.09;;;2.99;78.18
29825;BME280;16713;52.916;12.834;2023-02-19T06:33:03;100895.97;;;2.94;77.53
29825;BME280;16713;52.916;12.834;2023-02-19T06:35:29;100898.88;;;2.84;77.87
29825;BME280;16713;52.916;12.834;2023-02-19T06:37:55;100899.09;;;2.88;78.39
29825;BME280;16713;52.916;12.834;2023-02-19T06:40:22;100906.69;;;2.86;78.51
29825;BME280;16713;52.916;12.834;2023-02-19T06:42:48;100906.81;;;3.08;78.17
29825;BME280;16713;52.916;12.834;2023-02-19T06:45:14;100905.41;;;2.97;78.85
29825;BME280;16713;52.916;12.834;2023-02-19T06:47:41;100913.19;;;2.85;78.22
29825;BME280;16713;52.916;12.834;2023-02-19T06:50:07;100913.19;;;2.85;79.72
29825;BME280;16713;52.916;12.834;2023-02-19T06:52:33;100924.03;;;2.85;78.86
29825;BME280;16713;52.916;12.834;2023-02-19T06:55:00;100934.78;;;2.90;78.20
29825;BME280;16713;52.916;12.834;2023-02-19T06:57:26;100936.78;;;2.84;78.55
29825;BME280;16713;52.916;12.834;2023-02-19T06:59:52;100938.50;;;3.07;78.68
29825;BME280;16713;52.916;12.834;2023-02-19T07:02:19;100947.44;;;2.94;78.38
29825;BME280;16713;52.916;12.834;2023-02-19T07:04:45;100948.56;;;3.07;77.46
29825;BME280;16713;52.916;12.834;2023-02-19T07:07:11;100939.41;;;3.03;77.85
29825;BME280;16713;52.916;12.834;2023-02-19T07:09:38;100946.47;;;3.04;78.36
29825;BME280;16713;52.916;12.834;2023-02-19T07:12:04;100935.31;;;3.05;77.71
29825;BME280;16713;52.916;12.834;2023-02-19T07:14:31;100941.34;;;3.16;77.50
29825;BME280;16713;52.916;12.834;2023-02-19T07:16:57;100952.19;;;3.02;77.22
29825;BME280;16713;52.916;12.834;2023-02-19T07:19:23;100951.47;;;2.97;76.90
29825;BME280;16713;52.916;12.834;2023-02-19T07:21:49;100965.22;;;3.14;76.92
29825;BME280;16713;52.916;12.834;2023-02-19T07:24:16;100961.44;;;3.15;77.33
29825;BME280;16713;52.916;12.834;2023-02-19T07:26:42;100969.38;;;2.79;76.92
29825;BME280;16713;52.916;12.834;2023-02-19T07:29:08;100985.56;;;2.98;77.41
29825;BME280;16713;52.916;12.834;2023-02-19T07:31:35;100989.97;;;2.94;77.89
29825;BME280;16713;52.916;12.834;2023-02-19T07:34:01;101000.94;;;3.02;77.14
29825;BME280;16713;52.916;12.834;2023-02-19T07:36:28;101006.09;;;3.17;78.00
29825;BME280;16713;52.916;12.834;2023-02-19T07:38:54;101011.00;;;3.15;78.30
29825;BME280;16713;52.916;12.834;2023-02-19T07:41:21;101021.88;;;2.97;77.90
29825;BME280;16713;52.916;12.834;2023-02-19T07:43:48;101017.13;;;3.21;76.85
29825;BME280;16713;52.916;12.834;2023-02-19T07:46:14;101022.81;;;3.06;77.46
29825;BME280;16713;52.916;12.834;2023-02-19T07:48:41;101026.03;;;3.08;77.90
29825;BME280;16713;52.916;12.834;2023-02-19T07:51:15;101027.44;;;3.05;77.92
29825;BME280;16713;52.916;12.834;2023-02-19T07:53:44;101036.16;;;3.02;77.67
29825;BME280;16713;52.916;12.834;2023-02-19T07:56:11;101045.81;;;3.08;76.98
29825;BME280;16713;52.916;12.834;2023-02-19T07:58:37;101042.44;;;2.98;78.71
29825;BME280;16713;52.916;12.834;2023-02-19T08:03:34;101056.59;;;3.27;77.82
29825;BME280;16713;52.916;12.834;2023-02-19T08:06:00;101064.44;;;3.28;77.85
29825;BME280;16713;52.916;12.834;2023-02-19T08:08:27;101061.00;;;3.23;77.92
29825;BME280;16713;52.916;12.834;2023-02-19T08:10:53;101067.66;;;3.30;78.55
29825;BME280;16713;52.916;12.834;2023-02-19T08:13:38;101085.13;;;3.38;77.68
29825;BME280;16713;52.916;12.834;2023-02-19T08:18:45;101091.81;;;3.59;77.37
29825;BME280;16713;52.916;12.834;2023-02-19T08:21:12;101095.34;;;3.60;77.06
29825;BME280;16713;52.916;12.834;2023-02-19T08:23:39;101093.84;;;3.67;77.63
29825;BME280;16713;52.916;12.834;2023-02-19T08:26:05;101097.16;;;3.64;76.88
29825;BME280;16713;52.916;12.834;2023-02-19T08:28:31;101099.25;;;3.67;77.02
29825;BME280;16713;52.916;12.834;2023-02-19T08:31:00;101106.78;;;3.70;76.52
29825;BME280;16713;52.916;12.834;2023-02-19T08:33:26;101121.09;;;3.89;77.13
29825;BME280;16713;52.916;12.834;2023-02-19T08:35:53;101111.75;;;3.82;76.98
29825;BME280;16713;52.916;12.834;2023-02-19T08:38:19;101124.63;;;3.76;76.47
29825;BME280;16713;52.916;12.834;2023-02-19T08:40:45;101131.47;;;3.87;75.49
29825;BME280;16713;52.916;12.834;2023-02-19T08:43:13;101139.22;;;3.94;75.89
29825;BME280;16713;52.916;12.834;2023-02-19T08:45:41;101136.78;;;3.92;76.06
29825;BME280;16713;52.916;12.834;2023-02-19T08:48:08;101142.31;;;4.01;75.58
29825;BME280;16713;52.916;12.834;2023-02-19T08:50:35;101140.28;;;3.93;76.56
29825;BME280;16713;52.916;12.834;2023-02-19T08:53:02;101153.47;;;3.99;76.23
29825;BME280;16713;52.916;12.834;2023-02-19T08:55:28;101156.28;;;3.94;76.73
29825;BME280;16713;52.916;12.834;2023-02-19T08:57:55;101152.47;;;3.95;76.04
29825;BME280;16713;52.916;12.834;2023-02-19T09:00:22;101155.78;;;3.92;76.58
29825;BME280;16713;52.916;12.834;2023-02-19T09:02:48;101149.53;;;3.92;76.73
29825;BME280;16713;52.916;12.834;2023-02-19T09:05:14;101164.22;;;3.91;76.48
29825;BME280;16713;52.916;12.834;2023-02-19T09:07:41;101163.31;;;3.95;76.93
29825;BME280;16713;52.916;12.834;2023-02-19T09:10:11;101172.28;;;4.09;76.84
29825;BME280;16713;52.916;12.834;2023-02-19T09:12:37;101178.13;;;4.16;75.42
29825;BME280;16713;52.916;12.834;2023-02-19T09:15:05;101171.28;;;4.19;76.14
29825;BME280;16713;52.916;12.834;2023-02-19T09:17:31;101175.41;;;4.16;75.19
29825;BME280;16713;52.916;12.834;2023-02-19T09:19:58;101174.22;;;4.22;75.52
29825;BME280;16713;52.916;12.834;2023-02-19T09:22:24;101175.09;;;4.31;76.50
29825;BME280;16713;52.916;12.834;2023-02-19T09:24:50;101181.06;;;4.33;74.59
29825;BME280;16713;52.916;12.834;2023-02-19T09:27:18;101186.06;;;4.26;75.68
29825;BME280;16713;52.916;12.834;2023-02-19T09:29:45;101197.25;;;4.38;75.31
29825;BME280;16713;52.916;12.834;2023-02-19T09:32:12;101187.38;;;4.29;75.45
29825;BME280;16713;52.916;12.834;2023-02-19T09:34:38;101191.59;;;4.35;74.75
29825;BME280;16713;52.916;12.834;2023-02-19T09:37:05;101196.28;;;4.48;73.39
29825;BME280;16713;52.916;12.834;2023-02-19T09:39:32;101205.63;;;4.55;73.73
29825;BME280;16713;52.916;12.834;2023-02-19T09:44:29;101209.53;;;4.76;72.99
29825;BME280;16713;52.916;12.834;2023-02-19T09:46:57;101202.72;;;4.79;73.08
29825;BME280;16713;52.916;12.834;2023-02-19T09:49:27;101210.16;;;4.73;72.18
29825;BME280;16713;52.916;12.834;2023-02-19T09:51:56;101222.41;;;4.84;72.24
29825;BME280;16713;52.916;12.834;2023-02-19T09:54:28;101227.22;;;4.87;72.57
29825;BME280;16713;52.916;12.834;2023-02-19T09:56:55;101232.88;;;4.77;70.58
29825;BME280;16713;52.916;12.834;2023-02-19T09:59:23;101224.63;;;4.82;70.24
29825;BME280;16713;52.916;12.834;2023-02-19T10:01:54;101224.19;;;5.03;69.89
29825;BME280;16713;52.916;12.834;2023-02-19T10:04:22;101229.75;;;4.98;70.85
29825;BME280;16713;52.916;12.834;2023-02-19T10:06:48;101238.00;;;5.06;70.13
29825;BME280;16713;52.916;12.834;2023-02-19T10:09:21;101242.63;;;5.06;71.16
29825;BME280;16713;52.916;12.834;2023-02-19T10:11:48;101256.50;;;5.04;69.26
29825;BME280;16713;52.916;12.834;2023-02-19T10:14:31;101265.06;;;4.98;69.71
29825;BME280;16713;52.916;12.834;2023-02-19T10:17:00;101262.59;;;4.74;68.67
29825;BME280;16713;52.916;12.834;2023-02-19T10:19:26;101260.56;;;4.79;68.61
29825;BME280;16713;52.916;12.834;2023-02-19T10:21:53;101282.50;;;4.97;68.05
29825;BME280;16713;52.916;12.834;2023-02-19T10:24:24;101286.63;;;5.08;68.31
29825;BME280;16713;52.916;12.834;2023-02-19T10:26:52;101280.97;;;5.04;67.85
29825;BME280;16713;52.916;12.834;2023-02-19T10:29:18;101290.72;;;5.19;67.06
29825;BME280;16713;52.916;12.834;2023-02-19T10:31:46;101288.13;;;5.27;67.01
29825;BME280;16713;52.916;12.834;2023-02-19T10:34:18;101313.72;;;5.48;67.66
29825;BME280;16713;52.916;12.834;2023-02-19T10:36:49;101315.38;;;5.36;66.94
29825;BME280;16713;52.916;12.834;2023-02-19T10:42:01;101328.25;;;5.44;65.61
29825;BME280;16713;52.916;12.834;2023-02-19T10:44:28;101327.16;;;5.31;65.30
29825;BME280;16713;52.916;12.834;2023-02-19T10:46:56;101336.50;;;5.52;65.99
29825;BME280;16713;52.916;12.834;2023-02-19T10:51:51;101339.91;;;5.58;66.07
29825;BME280;16713;52.916;12.834;2023-02-19T10:54:19;101348.94;;;5.45;63.96
29825;BME280;16713;52.916;12.834;2023-02-19T10:56:49;101339.22;;;5.52;64.72
29825;BME280;16713;52.916;12.834;2023-02-19T10:59:25;101349.78;;;5.67;64.21
29825;BME280;16713;52.916;12.834;2023-02-19T11:04:19;101358.63;;;5.73;64.18
29825;BME280;16713;52.916;12.834;2023-02-19T11:06:45;101361.97;;;5.70;64.75
29825;BME280;16713;52.916;12.834;2023-02-19T11:09:32;101356.84;;;5.68;63.77
29825;BME280;16713;52.916;12.834;2023-02-19T11:12:01;101360.00;;;5.84;62.79
29825;BME280;16713;52.916;12.834;2023-02-19T11:14:30;101363.09;;;5.69;62.61
29825;BME280;16713;52.916;12.834;2023-02-19T11:16:57;101377.47;;;5.83;62.87
29825;BME280;16713;52.916;12.834;2023-02-19T11:19:41;101381.72;;;5.75;63.24
29825;BME280;16713;52.916;12.834;2023-02-19T11:24:48;101386.63;;;5.87;62.92
29825;BME280;16713;52.916;12.834;2023-02-19T11:27:18;101396.00;;;5.94;62.47
29825;BME280;16713;52.916;12.834;2023-02-19T11:29:44;101390.03;;;5.92;63.03
29825;BME280;16713;52.916;12.834;2023-02-19T11:34:50;101384.41;;;5.89;62.69
29825;BME280;16713;52.916;12.834;2023-02-19T11:37:18;101372.84;;;5.83;62.01
29825;BME280;16713;52.916;12.834;2023-02-19T11:39:46;101385.44;;;5.79;62.19
29825;BME280;16713;52.916;12.834;2023-02-19T11:57:59;101399.97;;;5.75;60.48
29825;BME280;16713;52.916;12.834;2023-02-19T12:00:35;101399.56;;;5.68;60.84
29825;BME280;16713;52.916;12.834;2023-02-19T12:13:36;101429.28;;;5.64;59.77
29825;BME280;16713;52.916;12.834;2023-02-19T12:18:44;101442.78;;;5.69;59.37
29825;BME280;16713;52.916;12.834;2023-02-19T12:26:54;101440.69;;;5.66;57.98
29825;BME280;16713;52.916;12.834;2023-02-19T12:32:15;101455.88;;;5.81;56.26
29825;BME280;16713;52.916;12.834;2023-02-19T12:45:14;101463.66;;;5.74;59.09
29825;BME280;16713;52.916;12.834;2023-02-19T12:47:41;101467.50;;;5.59;58.10
29825;BME280;16713;52.916;12.834;2023-02-19T12:50:17;101473.25;;;5.71;58.89
29825;BME280;16713;52.916;12.834;2023-02-19T12:52:50;101477.25;;;5.74;58.97
29825;BME280;16713;52.916;12.834;2023-02-19T12:55:21;101474.13;;;5.80;59.84
29825;BME280;16713;52.916;12.834;2023-02-19T12:57:50;101489.25;;;5.73;58.20
29825;BME280;16713;52.916;12.834;2023-02-19T13:10:54;101491.53;;;6.06;57.10
29825;BME280;16713;52.916;12.834;2023-02-19T13:13:23;101504.19;;;5.89;57.09
29825;BME280;16713;52.916;12.834;2023-02-19T13:15:52;101503.06;;;5.90;57.65
29825;BME280;16713;52.916;12.834;2023-02-19T13:18:23;101507.41;;;5.77;57.06
29825;BME280;16713;52.916;12.834;2023-02-19T13:20:50;101517.09;;;5.70;56.54
29825;BME280;16713;52.916;12.834;2023-02-19T13:36:27;101532.28;;;5.71;55.29
29825;BME280;16713;52.916;12.834;2023-02-19T13:38:54;101524.53;;;5.78;54.96
29825;BME280;16713;52.916;12.834;2023-02-19T13:41:31;101539.16;;;5.95;54.31
29825;BME280;16713;52.916;12.834;2023-02-19T13:44:01;101537.88;;;5.93;53.77
29825;BME280;16713;52.916;12.834;2023-02-19T13:46:32;101540.38;;;5.89;53.62
29825;BME280;16713;52.916;12.834;2023-02-19T13:51:53;101549.66;;;5.75;52.86
29825;BME280;16713;52.916;12.834;2023-02-19T13:54:21;101554.38;;;5.83;53.69
29825;BME280;16713;52.916;12.834;2023-02-19T13:56:48;101564.34;;;5.74;52.38
29825;BME280;16713;52.916;12.834;2023-02-19T13:59:34;101558.09;;;5.60;52.48
29825;BME280;16713;52.916;12.834;2023-02-19T14:14:50;101561.41;;;5.43;52.61
29825;BME280;16713;52.916;12.834;2023-02-19T14:19:50;101556.75;;;5.30;52.77
29825;BME280;16713;52.916;12.834;2023-02-19T14:25:03;101552.66;;;5.60;51.29
29825;BME280;16713;52.916;12.834;2023-02-19T14:27:32;101551.66;;;5.56;51.48
29825;BME280;16713;52.916;12.834;2023-02-19T14:29:59;101549.84;;;5.65;51.64
29825;BME280;16713;52.916;12.834;2023-02-19T14:32:25;101554.84;;;5.58;51.64
29825;BME280;16713;52.916;12.834;2023-02-19T14:34:52;101558.56;;;5.35;51.67
29825;BME280;16713;52.916;12.834;2023-02-19T14:37:18;101558.25;;;5.50;52.67
29825;BME280;16713;52.916;12.834;2023-02-19T14:39:46;101566.34;;;5.41;52.39
29825;BME280;16713;52.916;12.834;2023-02-19T14:42:17;101568.06;;;5.51;52.59
29825;BME280;16713;52.916;12.834;2023-02-19T14:44:49;101563.63;;;5.41;51.79
29825;BME280;16713;52.916;12.834;2023-02-19T14:47:18;101575.00;;;5.43;50.95
29825;BME280;16713;52.916;12.834;2023-02-19T14:54:47;101592.34;;;5.47;51.96
29825;BME280;16713;52.916;12.834;2023-02-19T14:57:17;101605.19;;;5.42;52.38
29825;BME280;16713;52.916;12.834;2023-02-19T14:59:52;101594.22;;;5.33;52.84
29825;BME280;16713;52.916;12.834;2023-02-19T15:02:20;101585.78;;;5.48;51.19
29825;BME280;16713;52.916;12.834;2023-02-19T15:04:49;101584.78;;;5.44;52.58
29825;BME280;16713;52.916;12.834;2023-02-19T15:07:16;101591.41;;;5.38;53.26
29825;BME280;16713;52.916;12.834;2023-02-19T15:09:48;101595.66;;;5.44;52.70
29825;BME280;16713;52.916;12.834;2023-02-19T15:12:16;101604.94;;;5.43;52.90
29825;BME280;16713;52.916;12.834;2023-02-19T15:14:44;101605.56;;;5.54;52.26
29825;BME280;16713;52.916;12.834;2023-02-19T15:17:14;101609.69;;;5.51;53.13
29825;BME280;16713;52.916;12.834;2023-02-19T15:19:43;101603.38;;;5.37;53.04
29825;BME280;16713;52.916;12.834;2023-02-19T15:22:17;101602.66;;;5.32;53.71
29825;BME280;16713;52.916;12.834;2023-02-19T15:24:45;101607.13;;;5.41;54.08
29825;BME280;16713;52.916;12.834;2023-02-19T15:27:17;101612.22;;;5.29;53.69